createdAt,value
2019-03-30T00:01:39.031Z,56.45
2019-03-30T00:04:14.287Z,56.38
2019-03-30T00:06:49.670Z,56.40
2019-03-30T00:09:25.273Z,56.71
2019-03-30T00:12:00.672Z,56.83
2019-03-30T00:14:36.287Z,56.95
2019-03-30T00:17:11.707Z,57.05
2019-03-30T00:19:47.287Z,56.84
2019-03-30T00:22:22.654Z,57.12
2019-03-30T00:24:58.283Z,57.02
2019-03-30T00:27:33.655Z,57.23
2019-03-30T00:30:09.271Z,57.40
2019-03-30T00:32:44.661Z,57.49
2019-03-30T00:35:20.282Z,57.37
2019-03-30T00:37:55.659Z,57.58
2019-03-30T00:40:31.284Z,57.66
2019-03-30T00:43:06.750Z,57.62
2019-03-30T00:45:42.296Z,57.68
2019-03-30T00:48:17.655Z,57.76
2019-03-30T00:50:53.290Z,57.85
2019-03-30T00:53:28.659Z,57.85
2019-03-30T00:56:05.295Z,58.09
2019-03-30T00:58:42.237Z,57.88
2019-03-30T01:01:18.471Z,57.84
2019-03-30T01:03:53.898Z,57.95
2019-03-30T01:06:27.762Z,57.95
2019-03-30T01:09:03.318Z,58.03
2019-03-30T01:11:39.281Z,58.03
2019-03-30T01:14:14.945Z,58.33
2019-03-30T01:16:48.659Z,58.44
2019-03-30T01:19:23.886Z,58.66
2019-03-30T01:21:57.600Z,58.90
2019-03-30T01:24:32.790Z,58.74
2019-03-30T01:27:08.279Z,58.81
2019-03-30T01:29:44.692Z,58.61
2019-03-30T01:32:20.295Z,58.12
2019-03-30T01:34:55.688Z,57.85
2019-03-30T01:37:31.262Z,57.90
2019-03-30T01:40:08.622Z,58.11
2019-03-30T01:42:43.870Z,57.95
2019-03-30T01:45:17.592Z,58.30
2019-03-30T01:47:52.687Z,58.42
2019-03-30T01:50:28.278Z,58.61
2019-03-30T01:53:03.712Z,58.73
2019-03-30T01:55:39.303Z,58.88
2019-03-30T01:58:14.697Z,59.11
2019-03-30T02:00:50.283Z,59.26
2019-03-30T02:03:25.708Z,59.19
2019-03-30T02:06:01.292Z,59.25
2019-03-30T02:08:36.683Z,59.27
2019-03-30T02:11:12.279Z,59.16
2019-03-30T02:13:47.668Z,59.37
2019-03-30T02:16:23.266Z,59.43
2019-03-30T02:18:58.705Z,59.61
2019-03-30T02:21:34.582Z,59.74
2019-03-30T02:24:09.932Z,59.74
2019-03-30T02:26:45.268Z,59.77
2019-03-30T02:29:20.685Z,59.77
2019-03-30T02:31:56.289Z,59.71
2019-03-30T02:34:31.673Z,59.94
2019-03-30T02:37:07.289Z,60.62
2019-03-30T02:39:42.684Z,60.32
2019-03-30T02:42:18.273Z,59.70
2019-03-30T02:44:53.662Z,59.32
2019-03-30T02:47:29.277Z,59.05
2019-03-30T02:50:04.648Z,59.02
2019-03-30T02:52:40.276Z,58.78
2019-03-30T02:55:15.665Z,58.66
2019-03-30T02:57:49.584Z,58.49
2019-03-30T03:00:24.871Z,58.45
2019-03-30T03:02:58.576Z,58.26
2019-03-30T03:05:33.699Z,58.23
2019-03-30T03:08:09.279Z,58.19
2019-03-30T03:10:44.713Z,58.03
2019-03-30T03:13:20.284Z,58.09
2019-03-30T03:15:55.714Z,57.78
2019-03-30T03:18:29.403Z,57.61
2019-03-30T03:21:08.135Z,57.42
2019-03-30T03:24:55.312Z,57.03
2019-03-30T03:27:30.749Z,57.01
2019-03-30T03:30:06.617Z,57.04
2019-03-30T03:33:10.565Z,56.92
2019-03-30T03:35:45.794Z,56.70
2019-03-30T03:38:21.277Z,56.70
2019-03-30T03:40:56.686Z,57.04
2019-03-30T03:43:32.208Z,57.28
2019-03-30T03:46:08.677Z,57.51
2019-03-30T03:48:44.287Z,57.51
2019-03-30T03:51:26.029Z,57.59
2019-03-30T03:53:58.338Z,57.74
2019-03-30T03:56:35.763Z,58.07
2019-03-30T03:59:13.267Z,58.16
2019-03-30T04:01:50.307Z,58.29
2019-03-30T04:04:28.427Z,58.40
2019-03-30T04:07:05.295Z,58.38
2019-03-30T04:12:02.689Z,58.33
2019-03-30T04:14:40.682Z,58.48
2019-03-30T04:17:16.274Z,58.86
2019-03-30T04:19:51.708Z,58.86
2019-03-30T04:22:27.291Z,58.82
2019-03-30T04:25:02.709Z,58.96
2019-03-30T04:29:38.304Z,59.26
2019-03-30T04:32:13.674Z,59.00
2019-03-30T04:34:49.137Z,59.02
2019-03-30T04:37:24.666Z,59.08
2019-03-30T04:40:00.468Z,59.08
2019-03-30T04:42:35.943Z,59.41
2019-03-30T04:45:11.399Z,59.69
2019-03-30T04:47:46.810Z,59.94
2019-03-30T04:50:20.591Z,59.96
2019-03-30T04:52:56.661Z,59.98
2019-03-30T04:55:32.242Z,60.13
2019-03-30T04:58:09.469Z,60.24
2019-03-30T05:00:45.254Z,60.29
2019-03-30T05:03:20.671Z,60.17
2019-03-30T05:05:56.242Z,60.09
2019-03-30T05:08:31.613Z,60.01
2019-03-30T05:11:07.275Z,59.71
2019-03-30T05:13:42.657Z,59.71
2019-03-30T05:16:18.259Z,59.93
2019-03-30T05:18:53.651Z,59.61
2019-03-30T05:21:29.281Z,59.34
2019-03-30T05:24:04.691Z,59.34
2019-03-30T05:26:40.271Z,59.45
2019-03-30T05:29:15.642Z,59.46
2019-03-30T05:31:51.264Z,59.32
2019-03-30T05:34:26.658Z,59.58
2019-03-30T05:37:02.251Z,59.51
2019-03-30T05:39:37.740Z,59.53
2019-03-30T05:42:13.268Z,57.86
2019-03-30T05:44:48.733Z,57.42
2019-03-30T05:47:24.327Z,58.20
2019-03-30T05:49:59.659Z,56.94
2019-03-30T05:52:35.794Z,55.70
2019-03-30T05:55:11.323Z,55.67
2019-03-30T05:57:46.655Z,57.24
2019-03-30T06:00:24.295Z,58.30
2019-03-30T06:02:59.763Z,57.70
2019-03-30T06:05:35.374Z,56.83
2019-03-30T06:08:10.885Z,56.36
2019-03-30T06:10:44.563Z,54.25
2019-03-30T06:13:19.891Z,54.25
2019-03-30T06:15:53.581Z,53.85
2019-03-30T06:18:28.707Z,53.71
2019-03-30T06:21:04.273Z,53.48
2019-03-30T06:23:39.663Z,53.17
2019-03-30T06:26:15.280Z,52.94
2019-03-30T06:28:50.666Z,52.97
2019-03-30T06:31:26.260Z,52.15
2019-03-30T06:34:01.638Z,52.15
2019-03-30T06:36:37.336Z,50.50
2019-03-30T06:39:12.642Z,49.97
2019-03-30T06:41:48.287Z,49.97
2019-03-30T06:44:23.654Z,49.54
2019-03-30T06:46:59.133Z,48.88
2019-03-30T06:49:35.566Z,49.38
2019-03-30T06:52:11.250Z,49.38
2019-03-30T06:54:46.632Z,47.95
2019-03-30T06:57:22.239Z,47.42
2019-03-30T06:59:57.640Z,46.07
2019-03-30T07:02:34.253Z,45.91
2019-03-30T07:05:10.912Z,44.09
2019-03-30T07:07:49.278Z,44.18
2019-03-30T07:10:24.737Z,43.65
2019-03-30T07:13:01.280Z,42.86
2019-03-30T07:15:38.298Z,42.44
2019-03-30T07:18:13.938Z,42.35
2019-03-30T07:20:49.280Z,40.79
2019-03-30T07:23:24.670Z,40.52
2019-03-30T07:26:00.137Z,38.88
2019-03-30T07:28:35.508Z,38.77
2019-03-30T07:31:10.895Z,38.77
2019-03-30T07:33:46.542Z,38.28
2019-03-30T07:36:21.908Z,38.28
2019-03-30T07:38:58.259Z,37.96
2019-03-30T07:41:34.265Z,37.46
2019-03-30T07:44:09.658Z,36.27
2019-03-30T07:46:45.263Z,36.93
2019-03-30T07:49:20.641Z,36.40
2019-03-30T07:51:56.258Z,34.70
2019-03-30T07:54:31.680Z,33.94
2019-03-30T07:57:16.613Z,33.80
2019-03-30T07:59:44.300Z,33.80
2019-03-30T08:02:19.676Z,32.10
2019-03-30T08:04:56.264Z,32.12
2019-03-30T08:08:33.297Z,31.40
2019-03-30T08:11:08.676Z,30.63
2019-03-30T08:13:43.891Z,27.17
2019-03-30T08:16:19.270Z,27.17
2019-03-30T08:18:54.674Z,26.35
2019-03-30T08:21:30.320Z,25.51
2019-03-30T08:24:05.749Z,24.75
2019-03-30T08:26:39.432Z,23.42
2019-03-30T08:29:14.671Z,23.00
2019-03-30T08:31:50.269Z,22.18
2019-03-30T08:35:41.935Z,21.85
2019-03-30T08:38:17.324Z,21.85
2019-03-30T08:40:52.696Z,21.11
2019-03-30T08:43:27.797Z,20.37
2019-03-30T08:46:03.271Z,20.53
2019-03-30T08:48:38.706Z,20.41
2019-03-30T08:51:14.241Z,19.89
2019-03-30T08:53:54.876Z,19.85
2019-03-30T08:56:28.153Z,20.30
2019-03-30T08:59:03.939Z,20.21
2019-03-30T09:01:39.289Z,19.93
2019-03-30T09:06:30.302Z,19.33
2019-03-30T09:09:07.946Z,19.41
2019-03-30T09:11:43.749Z,19.09
2019-03-30T09:14:17.575Z,19.46
2019-03-30T09:16:52.672Z,18.93
2019-03-30T09:19:28.259Z,18.93
2019-03-30T09:22:03.661Z,18.49
2019-03-30T09:24:39.332Z,18.25
2019-03-30T09:27:14.757Z,19.12
2019-03-30T09:29:48.588Z,19.16
2019-03-30T09:32:23.865Z,18.45
2019-03-30T09:34:57.591Z,18.57
2019-03-30T09:37:32.799Z,19.04
2019-03-30T09:40:07.016Z,19.23
2019-03-30T09:42:41.663Z,18.89
2019-03-30T09:45:20.316Z,19.48
2019-03-30T09:47:56.763Z,19.48
2019-03-30T09:50:32.342Z,18.30
2019-03-30T09:53:07.953Z,18.86
2019-03-30T09:55:43.612Z,18.26
2019-03-30T09:58:19.137Z,18.26
2019-03-30T10:00:54.724Z,18.19
2019-03-30T10:03:28.571Z,18.19
2019-03-30T10:06:04.087Z,18.30
2019-03-30T10:08:39.583Z,18.67
2019-03-30T10:11:15.282Z,18.67
2019-03-30T10:13:50.656Z,18.74
2019-03-30T10:16:26.259Z,18.69
2019-03-30T10:19:01.841Z,19.34
2019-03-30T10:21:38.476Z,18.76
2019-03-30T10:24:13.987Z,18.98
2019-03-30T10:26:49.434Z,18.87
2019-03-30T10:29:26.285Z,18.11
2019-03-30T10:32:02.393Z,18.80
2019-03-30T10:34:39.638Z,18.58
2019-03-30T10:38:36.738Z,18.86
2019-03-30T10:41:12.502Z,18.73
2019-03-30T10:43:47.897Z,18.70
2019-03-30T10:46:23.294Z,17.83
2019-03-30T10:48:58.698Z,18.68
2019-03-30T10:51:34.594Z,18.92
2019-03-30T10:54:09.942Z,18.87
2019-03-30T10:57:49.855Z,17.16
2019-03-30T11:00:44.327Z,17.16
2019-03-30T11:03:19.941Z,16.86
2019-03-30T11:05:55.277Z,16.59
2019-03-30T11:08:32.289Z,16.83
2019-03-30T11:11:08.694Z,17.20
2019-03-30T11:13:43.944Z,17.33
2019-03-30T11:16:19.330Z,17.11
2019-03-30T11:18:54.669Z,16.05
2019-03-30T11:21:30.514Z,16.05
2019-03-30T11:24:06.912Z,15.96
2019-03-30T11:26:42.361Z,15.23
2019-03-30T11:29:17.864Z,15.23
2019-03-30T11:33:55.335Z,15.50
2019-03-30T11:36:31.332Z,14.72
2019-03-30T11:39:07.315Z,14.64
2019-03-30T11:41:42.762Z,13.84
2019-03-30T11:44:39.330Z,13.64
2019-03-30T11:47:15.078Z,13.68
2019-03-30T11:49:50.554Z,13.39
2019-03-30T11:52:26.266Z,13.39
2019-03-30T11:55:01.719Z,13.47
2019-03-30T11:57:35.650Z,13.25
2019-03-30T12:00:11.421Z,13.37
2019-03-30T12:02:46.903Z,12.52
2019-03-30T12:05:22.333Z,12.40
2019-03-30T12:07:57.657Z,12.43
2019-03-30T12:10:31.403Z,12.48
2019-03-30T12:13:06.658Z,12.36
2019-03-30T12:16:20.791Z,12.45
2019-03-30T12:18:55.042Z,12.85
2019-03-30T12:21:30.947Z,12.17
2019-03-30T12:24:06.288Z,11.72
2019-03-30T12:26:42.281Z,11.51
2019-03-30T12:29:18.290Z,11.88
2019-03-30T12:31:54.287Z,12.12
2019-03-30T12:34:29.948Z,12.01
2019-03-30T12:37:05.606Z,11.72
2019-03-30T12:39:40.276Z,10.86
2019-03-30T12:42:15.724Z,11.64
2019-03-30T12:44:49.605Z,11.64
2019-03-30T12:47:24.941Z,11.43
2019-03-30T12:50:00.585Z,11.12
2019-03-30T12:52:34.399Z,11.48
2019-03-30T12:55:09.971Z,11.75
2019-03-30T12:59:26.708Z,12.11
2019-03-30T13:02:00.567Z,11.65
2019-03-30T13:04:36.538Z,11.64
2019-03-30T13:07:12.047Z,11.17
2019-03-30T13:10:53.647Z,10.66
2019-03-30T13:13:29.303Z,10.98
2019-03-30T13:16:04.673Z,10.97
2019-03-30T13:18:38.526Z,10.97
2019-03-30T13:22:23.381Z,10.97
2019-03-30T13:24:58.699Z,10.90
2019-03-30T13:27:32.372Z,10.82
2019-03-30T13:30:08.549Z,11.48
2019-03-30T13:32:43.953Z,11.48
2019-03-30T13:35:19.409Z,11.23
2019-03-30T13:37:54.669Z,11.23
2019-03-30T13:40:28.381Z,11.17
2019-03-30T13:43:03.675Z,11.45
2019-03-30T13:45:37.389Z,11.99
2019-03-30T13:48:12.709Z,11.66
2019-03-30T13:50:47.927Z,11.66
2019-03-30T13:53:26.105Z,11.68
2019-03-30T13:56:01.664Z,11.50
2019-03-30T13:58:36.634Z,11.50
2019-03-30T14:01:11.711Z,11.03
2019-03-30T14:03:46.864Z,11.61
2019-03-30T14:06:22.270Z,11.41
2019-03-30T14:08:57.634Z,11.40
2019-03-30T14:11:34.242Z,10.91
2019-03-30T14:14:09.735Z,11.20
2019-03-30T14:16:43.405Z,11.39
2019-03-30T14:19:18.636Z,11.47
2019-03-30T14:21:53.925Z,11.43
2019-03-30T14:24:29.270Z,11.89
2019-03-30T14:27:04.703Z,11.23
2019-03-30T14:29:39.791Z,11.57
2019-03-30T14:32:13.589Z,11.77
2019-03-30T14:34:48.676Z,12.15
2019-03-30T14:37:22.328Z,12.15
2019-03-30T14:39:57.609Z,12.27
2019-03-30T14:42:32.864Z,12.38
2019-03-30T14:45:09.276Z,12.38
2019-03-30T14:47:44.663Z,12.36
2019-03-30T14:50:20.280Z,12.14
2019-03-30T14:52:55.639Z,12.52
2019-03-30T14:55:30.942Z,12.52
2019-03-30T14:58:06.295Z,13.54
2019-03-30T15:00:41.978Z,13.30
2019-03-30T15:03:17.696Z,12.90
2019-03-30T15:05:53.269Z,12.90
2019-03-30T15:08:28.884Z,12.84
2019-03-30T15:11:04.446Z,13.77
2019-03-30T15:13:39.932Z,13.77
2019-03-30T15:16:15.280Z,13.49
2019-03-30T15:18:50.960Z,13.74
2019-03-30T15:21:26.306Z,13.62
2019-03-30T15:24:01.737Z,13.62
2019-03-30T15:26:37.306Z,15.16
2019-03-30T15:29:12.783Z,15.45
2019-03-30T15:31:46.414Z,15.28
2019-03-30T15:34:21.679Z,15.61
2019-03-30T15:36:57.272Z,16.11
2019-03-30T15:39:32.775Z,16.10
2019-03-30T15:42:08.277Z,15.83
2019-03-30T15:44:43.745Z,17.04
2019-03-30T15:47:18.879Z,18.21
2019-03-30T15:49:54.271Z,17.96
2019-03-30T15:52:29.674Z,18.61
2019-03-30T15:55:05.274Z,20.79
2019-03-30T15:57:41.657Z,21.27
2019-03-30T16:00:19.614Z,21.77
2019-03-30T16:02:54.886Z,21.80
2019-03-30T16:05:30.268Z,21.36
2019-03-30T16:08:05.693Z,21.00
2019-03-30T16:10:40.848Z,22.54
2019-03-30T16:13:15.467Z,22.54
2019-03-30T16:15:51.292Z,23.25
2019-03-30T16:18:26.709Z,23.69
2019-03-30T16:21:02.277Z,24.29
2019-03-30T16:23:37.697Z,24.70
2019-03-30T16:26:11.309Z,25.27
2019-03-30T16:28:46.311Z,27.92
2019-03-30T16:31:21.677Z,27.92
2019-03-30T16:33:57.266Z,28.29
2019-03-30T16:36:33.238Z,28.57
2019-03-30T16:39:10.269Z,28.63
2019-03-30T16:41:45.699Z,28.64
2019-03-30T16:44:21.234Z,28.75
2019-03-30T16:46:57.601Z,29.40
2019-03-30T16:49:33.132Z,29.74
2019-03-30T16:52:08.665Z,29.84
2019-03-30T16:54:44.235Z,29.84
2019-03-30T16:57:19.672Z,30.05
2019-03-30T16:59:53.356Z,30.05
2019-03-30T17:02:28.687Z,30.29
2019-03-30T17:05:04.267Z,30.09
2019-03-30T17:07:39.636Z,30.55
2019-03-30T17:10:15.322Z,30.79
2019-03-30T17:12:50.671Z,31.36
2019-03-30T17:15:24.570Z,31.36
2019-03-30T17:17:59.885Z,31.43
2019-03-30T17:20:35.279Z,31.59
2019-03-30T17:23:10.670Z,31.97
2019-03-30T17:25:46.268Z,32.54
2019-03-30T17:28:21.700Z,32.94
2019-03-30T17:30:55.542Z,32.74
2019-03-30T17:33:30.754Z,32.88
2019-03-30T17:36:06.262Z,32.88
2019-03-30T17:38:41.711Z,32.99
2019-03-30T17:41:16.550Z,33.30
2019-03-30T17:43:51.668Z,33.34
2019-03-30T17:46:27.267Z,33.43
2019-03-30T17:49:02.670Z,33.43
2019-03-30T17:51:38.652Z,33.69
2019-03-30T17:54:14.210Z,34.66
2019-03-30T17:56:49.757Z,35.81
2019-03-30T17:59:25.287Z,35.81
2019-03-30T18:02:00.950Z,36.32
2019-03-30T18:04:38.863Z,36.92
2019-03-30T18:07:13.706Z,37.50
2019-03-30T18:09:49.269Z,38.15
2019-03-30T18:12:24.688Z,38.15
2019-03-30T18:15:00.413Z,38.01
2019-03-30T18:17:36.826Z,38.31
2019-03-30T18:20:13.272Z,38.31
2019-03-30T18:22:48.671Z,37.94
2019-03-30T18:25:24.276Z,39.41
2019-03-30T18:27:59.688Z,39.53
2019-03-30T18:30:42.530Z,40.47
2019-03-30T18:33:18.036Z,40.84
2019-03-30T18:35:53.693Z,41.10
2019-03-30T18:38:29.273Z,41.10
2019-03-30T18:41:04.688Z,41.14
2019-03-30T18:43:40.276Z,41.30
2019-03-30T18:46:15.642Z,41.51
2019-03-30T18:48:51.277Z,41.30
2019-03-30T18:51:27.441Z,41.37
2019-03-30T18:54:03.671Z,41.46
2019-03-30T18:56:39.277Z,41.06
2019-03-30T18:59:15.639Z,41.15
2019-03-30T19:01:51.251Z,41.26
2019-03-30T19:04:26.751Z,42.80
2019-03-30T19:07:00.599Z,42.56
2019-03-30T19:09:36.244Z,42.51
2019-03-30T19:12:11.707Z,41.90
2019-03-30T19:14:47.272Z,41.88
2019-03-30T19:17:22.681Z,42.08
2019-03-30T19:19:58.274Z,43.32
2019-03-30T19:22:33.675Z,43.53
2019-03-30T19:25:10.663Z,43.65
2019-03-30T19:27:46.280Z,43.65
2019-03-30T19:30:22.279Z,42.78
2019-03-30T19:32:57.658Z,43.33
2019-03-30T19:35:33.269Z,43.59
2019-03-30T19:38:10.951Z,43.13
2019-03-30T19:40:45.706Z,42.84
2019-03-30T19:43:21.278Z,42.65
2019-03-30T19:45:56.715Z,42.92
2019-03-30T19:48:32.273Z,43.68
2019-03-30T19:51:07.681Z,43.39
2019-03-30T19:53:44.271Z,42.87
2019-03-30T19:56:19.772Z,43.08
2019-03-30T19:59:09.615Z,42.82
2019-03-30T20:01:33.658Z,42.82
2019-03-30T20:04:09.327Z,43.17
2019-03-30T20:06:44.872Z,43.27
2019-03-30T20:09:20.992Z,43.71
2019-03-30T20:11:56.738Z,43.83
2019-03-30T20:14:30.571Z,44.53
2019-03-30T20:17:05.792Z,44.37
2019-03-30T20:19:39.600Z,44.17
2019-03-30T20:22:14.881Z,44.34
2019-03-30T20:24:48.602Z,44.79
2019-03-30T20:27:25.274Z,45.12
2019-03-30T20:30:00.690Z,45.58
2019-03-30T20:32:36.276Z,45.57
2019-03-30T20:35:12.602Z,45.87
2019-03-30T20:37:48.285Z,45.83
2019-03-30T20:40:23.690Z,45.67
2019-03-30T20:42:59.305Z,45.89
2019-03-30T20:45:34.666Z,45.89
2019-03-30T20:48:10.278Z,45.71
2019-03-30T20:50:45.934Z,46.26
2019-03-30T20:53:21.326Z,46.35
2019-03-30T20:55:56.872Z,46.42
2019-03-30T20:58:30.603Z,46.61
2019-03-30T21:01:06.312Z,46.78
2019-03-30T21:03:42.122Z,47.15
2019-03-30T21:06:17.695Z,47.70
2019-03-30T21:08:53.293Z,47.70
2019-03-30T21:11:29.290Z,47.55
2019-03-30T21:14:06.423Z,47.63
2019-03-30T21:16:42.643Z,47.93
2019-03-30T21:19:18.981Z,47.65
2019-03-30T21:24:23.423Z,47.69
2019-03-30T21:26:59.824Z,47.61
2019-03-30T21:29:36.496Z,47.56
2019-03-30T21:32:12.817Z,47.45
2019-03-30T21:34:49.324Z,47.37
2019-03-30T21:37:25.748Z,46.87
2019-03-30T21:40:02.308Z,46.05
2019-03-30T21:42:38.422Z,44.47
2019-03-30T21:45:15.299Z,44.40
2019-03-30T21:47:51.743Z,43.89
2019-03-30T21:50:28.296Z,44.72
2019-03-30T21:53:04.320Z,45.56
2019-03-30T21:55:39.777Z,46.12
2019-03-30T21:58:14.037Z,46.45
2019-03-30T22:00:48.605Z,46.78
2019-03-30T22:03:23.879Z,47.19
2019-03-30T22:05:57.573Z,47.08
2019-03-30T22:08:32.984Z,47.23
2019-03-30T22:11:08.282Z,47.43
2019-03-30T22:13:43.725Z,47.16
2019-03-30T22:16:19.294Z,47.16
2019-03-30T22:18:54.658Z,47.58
2019-03-30T22:21:30.551Z,47.74
2019-03-30T22:24:06.286Z,47.86
2019-03-30T22:26:41.762Z,48.10
2019-03-30T22:29:17.168Z,47.85
2019-03-30T22:31:52.676Z,47.52
2019-03-30T22:34:28.304Z,47.40
2019-03-30T22:37:03.885Z,47.57
2019-03-30T22:39:37.638Z,47.67
2019-03-30T22:42:12.919Z,48.10
2019-03-30T22:44:48.294Z,48.62
2019-03-30T22:47:23.954Z,47.82
2019-03-30T22:49:57.609Z,47.30
2019-03-30T22:52:32.898Z,46.66
2019-03-30T22:55:07.278Z,45.78
2019-03-30T22:57:42.688Z,45.59
2019-03-30T23:00:49.334Z,44.63
2019-03-30T23:03:24.671Z,44.81
2019-03-30T23:06:00.087Z,44.81
2019-03-30T23:08:35.601Z,44.81
2019-03-30T23:11:11.285Z,44.81
2019-03-30T23:13:46.707Z,45.04
2019-03-30T23:16:22.279Z,45.10
2019-03-30T23:18:57.743Z,45.35
2019-03-30T23:21:32.482Z,44.92
2019-03-30T23:24:07.953Z,45.86
2019-03-30T23:26:41.606Z,45.79
2019-03-30T23:29:16.878Z,45.79
2019-03-30T23:31:50.566Z,45.98
2019-03-30T23:34:25.903Z,46.26
2019-03-30T23:37:01.306Z,45.59
2019-03-30T23:39:36.691Z,45.24
2019-03-30T23:42:13.280Z,45.86
2019-03-30T23:44:48.710Z,46.28
2019-03-30T23:47:22.579Z,46.35
2019-03-30T23:49:57.890Z,46.35
2019-03-30T23:52:33.285Z,45.09
2019-03-30T23:55:08.797Z,46.75
2019-03-30T23:57:44.367Z,47.29
